Hauptseite
METAR-TAF:

METAR-TAF

Flughäfen :

Flughafen Changchun-Longjia

Changchun, China

Breite: 43-54N, Länge: 125-13E, Höhe: 238 m

Beobachtung

Neuester Wetterbericht von vor 17 Minuten, um 12:00 UTC
Wind 2 kt aus Nord
Temperatur -10°C
Luftfeuchtigkeit 67%
Luftdruck 1027 hPa
Sichtweite: 7000 m

METAR: ZYCC 241200Z 36001MPS 7000 NSC M10/M15 Q1027 NOSIG

Zeit: 20:17 (12:17 UTC)

Prognose

Neuester Wetterbericht von vor 3 Stunden und 14 Minuten, um 09:03 UTC
Gültige Prognose vom 24 um 12 UTC bis 25 um 12 UTC
Wind 6 kt aus Nord
Sichtweite: 6000 m

TAF: ZYCC 240903Z 2412/2512 01003MPS 6000 NSC TXM01/2506Z TNM18/2421Z

Wetterbeobachtungen und Prognosen von mehr als 4000 Flughäfen (METAR und TAF Bericht).

Die verfügbaren Stationen werden durch gelbe und rote Markierungen auf der Karte dargestellt.

Führen Sie die Maus auf sie, um den Namen der Station zu sehen.

Darauf klicken, um die Beobachtung von Wetterbeobachtungen und Prognosen zu sehen.

Um die Karte zu ändern : klicken Sie auf den grünen Tasten mit einem schwarzen Kreuz Zum Vergrößern, auf den grünen Button mit einem Gedankenstrich zu verkleinern, oder auf die grünen Pfeile für benachbarte Karten.


METAR-TAF: